Time;durP1;ratioP1;P1;durP2;ratioP2;P2;SDS_P1;SDS_P2;PMS_P1;PMS_P2;Temp;Humidity;BMP_temperature;BMP_pressure;BME280_temperature;BME280_humidity;BME280_pressure;Samples;Min_cycle;Max_cycle;Signal;HPM_P1;HPM_P2
2023/03/26 00:01:20;;;;;;;14.95;5.25;;;;;;;;;;4921165;28;20116;-66
2023/03/26 00:03:52;;;;;;;19.95;5.82;;;;;;;;;;4905358;28;20039;-66
2023/03/26 00:06:41;;;;;;;16.48;5.80;;;;;;;;;;4921136;28;20030;-66
2023/03/26 00:09:12;;;;;;;17.10;5.63;;;;;;;;;;4938403;28;20046;-68
2023/03/26 00:11:39;;;;;;;17.83;6.30;;;;;;;;;;4921623;28;20393;-66
2023/03/26 00:14:06;;;;;;;17.15;6.00;;;;;;;;;;4939910;28;20360;-66
2023/03/26 00:16:32;;;;;;;15.88;6.15;;;;;;;;;;4941491;28;20579;-66
2023/03/26 00:19:00;;;;;;;14.43;5.70;;;;;;;;;;4942802;28;20031;-66
2023/03/26 00:21:29;;;;;;;20.85;6.18;;;;;;;;;;4940960;28;20433;-66
2023/03/26 00:23:58;;;;;;;16.88;6.40;;;;;;;;;;4923310;28;20042;-66
2023/03/26 00:26:30;;;;;;;16.33;5.80;;;;;;;;;;4928358;28;20138;-66
2023/03/26 00:28:59;;;;;;;15.00;5.53;;;;;;;;;;4938023;28;20062;-66
2023/03/26 00:31:28;;;;;;;16.13;6.30;;;;;;;;;;4926508;28;20059;-68
2023/03/26 00:33:55;;;;;;;19.95;6.07;;;;;;;;;;4920633;28;20053;-67
2023/03/26 00:36:26;;;;;;;17.38;5.45;;;;;;;;;;4941813;28;20070;-67
2023/03/26 00:38:54;;;;;;;19.85;6.43;;;;;;;;;;4924202;28;20226;-67
2023/03/26 00:41:29;;;;;;;17.98;6.22;;;;;;;;;;4939983;28;20031;-67
2023/03/26 00:43:58;;;;;;;20.10;6.22;;;;;;;;;;4922020;28;20046;-67
2023/03/26 00:46:27;;;;;;;20.45;6.65;;;;;;;;;;4946375;28;20062;-68
2023/03/26 00:48:57;;;;;;;16.58;6.18;;;;;;;;;;4913289;28;20481;-68
2023/03/26 00:51:27;;;;;;;20.15;7.00;;;;;;;;;;4936784;28;20045;-68
2023/03/26 00:53:55;;;;;;;21.13;7.07;;;;;;;;;;4935655;28;20038;-69
2023/03/26 00:56:26;;;;;;;15.85;6.43;;;;;;;;;;4920413;28;20569;-71
2023/03/26 00:58:52;;;;;;;22.55;8.30;;;;;;;;;;4933605;28;20030;-69
2023/03/26 01:01:27;;;;;;;17.17;7.50;;;;;;;;;;4946825;28;20116;-69
2023/03/26 01:03:58;;;;;;;19.30;6.72;;;;;;;;;;4938515;28;20031;-69
2023/03/26 01:06:36;;;;;;;22.35;10.85;;;;;;;;;;4926633;28;20046;-68
2023/03/26 01:09:04;;;;;;;21.60;8.38;;;;;;;;;;4944056;28;20027;-68
2023/03/26 01:11:33;;;;;;;20.38;8.10;;;;;;;;;;4946560;28;20046;-68
2023/03/26 01:14:06;;;;;;;20.05;8.52;;;;;;;;;;4941868;28;20494;-68
2023/03/26 01:16:50;;;;;;;22.80;9.23;;;;;;;;;;4928707;28;20296;-69
2023/03/26 01:19:32;;;;;;;24.77;10.98;;;;;;;;;;4944299;28;20034;-68
2023/03/26 01:21:59;;;;;;;17.45;9.20;;;;;;;;;;4928003;28;20442;-71
2023/03/26 01:24:28;;;;;;;21.98;10.90;;;;;;;;;;4943923;28;20416;-68
2023/03/26 01:26:58;;;;;;;20.55;9.80;;;;;;;;;;4945782;28;20560;-68
2023/03/26 01:29:30;;;;;;;20.48;10.05;;;;;;;;;;4938341;28;20043;-67
2023/03/26 01:32:29;;;;;;;19.42;9.77;;;;;;;;;;4949228;28;20035;-69
2023/03/26 01:35:14;;;;;;;23.27;9.95;;;;;;;;;;4915876;29;20047;-68
2023/03/26 01:38:09;;;;;;;29.75;15.43;;;;;;;;;;4898036;29;20060;-68
2023/03/26 01:40:52;;;;;;;20.38;11.30;;;;;;;;;;4908847;29;20106;-69
2023/03/26 01:43:37;;;;;;;23.75;9.80;;;;;;;;;;4906720;29;20028;-68
2023/03/26 01:46:10;;;;;;;21.02;11.00;;;;;;;;;;4918877;29;20134;-70
2023/03/26 01:48:40;;;;;;;21.48;10.10;;;;;;;;;;4890942;29;20468;-69
2023/03/26 01:51:09;;;;;;;24.38;10.15;;;;;;;;;;4888105;29;20554;-69
2023/03/26 01:53:49;;;;;;;25.15;14.23;;;;;;;;;;4887898;29;20040;-71
2023/03/26 01:56:48;;;;;;;21.15;10.05;;;;;;;;;;4912974;29;20043;-68
2023/03/26 01:59:17;;;;;;;16.67;9.13;;;;;;;;;;4890151;29;20577;-67
2023/03/26 02:02:06;;;;;;;22.30;9.50;;;;;;;;;;4901901;29;20037;-68
2023/03/26 02:04:52;;;;;;;21.48;8.70;;;;;;;;;;4907594;29;20090;-68
2023/03/26 02:07:27;;;;;;;19.67;10.80;;;;;;;;;;4904411;29;20058;-68
2023/03/26 02:10:04;;;;;;;22.27;11.27;;;;;;;;;;4900073;29;20071;-68
2023/03/26 02:12:33;;;;;;;18.42;10.05;;;;;;;;;;4944872;28;20041;-68
2023/03/26 02:15:04;;;;;;;22.63;10.70;;;;;;;;;;4933191;28;20541;-68
2023/03/26 02:17:39;;;;;;;18.80;10.13;;;;;;;;;;4960240;28;20038;-69
2023/03/26 02:20:13;;;;;;;22.05;9.82;;;;;;;;;;4929534;28;20047;-68
2023/03/26 02:22:44;;;;;;;18.17;9.85;;;;;;;;;;4939346;28;20135;-69
2023/03/26 02:25:24;;;;;;;18.83;9.38;;;;;;;;;;4930949;28;20433;-69
2023/03/26 02:27:53;;;;;;;22.20;11.38;;;;;;;;;;4942406;28;20424;-69
2023/03/26 02:30:25;;;;;;;22.55;10.48;;;;;;;;;;4944923;28;20047;-69
2023/03/26 02:32:52;;;;;;;17.92;9.73;;;;;;;;;;4925592;28;20034;-70
2023/03/26 02:35:20;;;;;;;18.02;9.73;;;;;;;;;;4927801;28;20125;-69
2023/03/26 02:37:49;;;;;;;23.90;10.93;;;;;;;;;;4947195;28;20113;-68
2023/03/26 02:40:20;;;;;;;22.38;11.25;;;;;;;;;;4942092;28;20549;-68
2023/03/26 02:42:49;;;;;;;20.98;10.45;;;;;;;;;;4942779;28;20485;-68
2023/03/26 02:45:17;;;;;;;19.23;10.82;;;;;;;;;;4946969;28;20081;-68
2023/03/26 02:47:44;;;;;;;21.35;12.45;;;;;;;;;;4942260;28;20035;-67
2023/03/26 02:50:10;;;;;;;21.83;12.23;;;;;;;;;;4944846;28;20474;-68
2023/03/26 02:52:41;;;;;;;21.27;11.95;;;;;;;;;;4947080;28;20062;-69
2023/03/26 02:55:10;;;;;;;21.83;12.10;;;;;;;;;;4924750;28;20034;-69
2023/03/26 02:57:38;;;;;;;19.23;12.15;;;;;;;;;;4941195;28;20038;-68
2023/03/26 03:00:13;;;;;;;24.67;13.10;;;;;;;;;;4938738;28;20563;-68
2023/03/26 03:02:40;;;;;;;22.20;13.20;;;;;;;;;;4941502;28;20046;-69
2023/03/26 03:05:07;;;;;;;19.42;12.02;;;;;;;;;;4924272;28;20035;-69
2023/03/26 03:07:37;;;;;;;23.23;12.52;;;;;;;;;;4944575;28;20029;-68
2023/03/26 03:10:07;;;;;;;21.95;11.88;;;;;;;;;;4941222;28;20039;-69
2023/03/26 03:12:35;;;;;;;21.95;12.60;;;;;;;;;;4950558;28;20046;-68
2023/03/26 03:15:05;;;;;;;21.58;11.32;;;;;;;;;;4940880;28;20050;-68
2023/03/26 03:17:33;;;;;;;23.70;12.63;;;;;;;;;;4939457;28;20774;-68
2023/03/26 03:20:03;;;;;;;19.92;12.18;;;;;;;;;;4942532;28;20034;-68
2023/03/26 03:22:35;;;;;;;20.85;12.15;;;;;;;;;;4945190;28;20382;-67
2023/03/26 03:25:01;;;;;;;20.92;12.85;;;;;;;;;;4941926;28;20482;-69
2023/03/26 03:27:29;;;;;;;26.67;15.48;;;;;;;;;;4924824;28;20090;-69
2023/03/26 03:29:57;;;;;;;24.83;15.00;;;;;;;;;;4939242;28;20054;-69
2023/03/26 03:32:26;;;;;;;29.50;15.45;;;;;;;;;;4928203;28;20031;-69
2023/03/26 03:34:52;;;;;;;23.50;15.02;;;;;;;;;;4939712;28;20050;-69
2023/03/26 03:37:22;;;;;;;27.13;15.98;;;;;;;;;;4943096;28;20514;-69
2023/03/26 03:39:49;;;;;;;21.52;14.75;;;;;;;;;;4937948;28;20039;-69
2023/03/26 03:42:19;;;;;;;23.88;17.25;;;;;;;;;;4926679;28;20224;-68
2023/03/26 03:44:46;;;;;;;24.75;15.93;;;;;;;;;;4922680;28;20031;-69
2023/03/26 03:47:15;;;;;;;24.10;15.48;;;;;;;;;;4944768;28;20049;-69
2023/03/26 03:49:42;;;;;;;25.38;15.60;;;;;;;;;;4942140;28;20712;-69
2023/03/26 03:52:10;;;;;;;29.38;16.20;;;;;;;;;;4924065;28;20054;-69
2023/03/26 03:54:37;;;;;;;24.33;15.68;;;;;;;;;;4941070;28;20141;-69
2023/03/26 03:57:06;;;;;;;27.08;16.98;;;;;;;;;;4925872;28;20031;-69
2023/03/26 03:59:33;;;;;;;26.52;16.55;;;;;;;;;;4945651;28;20046;-68
2023/03/26 04:01:59;;;;;;;27.23;16.38;;;;;;;;;;4921409;28;20424;-69
2023/03/26 04:04:25;;;;;;;;;;;;;;;;;;4936449;28;20077;-69
2023/03/26 04:06:54;;;;;;;28.23;16.95;;;;;;;;;;4922430;28;19918;-69
2023/03/26 04:09:22;;;;;;;25.08;15.77;;;;;;;;;;4925441;28;20026;-69
2023/03/26 04:11:50;;;;;;;23.35;15.73;;;;;;;;;;4937405;28;20818;-70
2023/03/26 04:14:19;;;;;;;26.42;17.02;;;;;;;;;;4928283;28;20599;-70
2023/03/26 04:16:47;;;;;;;26.23;16.80;;;;;;;;;;4936662;28;20035;-68
2023/03/26 04:19:16;;;;;;;26.10;15.60;;;;;;;;;;4942165;28;20445;-68
2023/03/26 04:21:42;;;;;;;30.45;16.42;;;;;;;;;;4920272;28;20038;-68
2023/03/26 04:24:11;;;;;;;27.27;16.98;;;;;;;;;;4942999;28;20054;-68
2023/03/26 04:26:40;;;;;;;24.02;15.18;;;;;;;;;;4907427;28;20110;-69
2023/03/26 04:29:10;;;;;;;23.90;14.98;;;;;;;;;;4942179;28;20031;-68
2023/03/26 04:31:37;;;;;;;24.60;15.43;;;;;;;;;;4941692;28;20027;-69
2023/03/26 04:34:12;;;;;;;26.08;16.33;;;;;;;;;;4944594;28;20476;-68
2023/03/26 04:36:41;;;;;;;25.65;15.75;;;;;;;;;;4926686;28;20042;-70
2023/03/26 04:39:14;;;;;;;24.67;16.05;;;;;;;;;;4921335;28;20035;-70
2023/03/26 04:41:41;;;;;;;23.70;14.75;;;;;;;;;;4935756;28;20091;-70
2023/03/26 04:44:10;;;;;;;27.45;16.65;;;;;;;;;;4945603;28;20026;-68
2023/03/26 04:46:42;;;;;;;27.80;15.25;;;;;;;;;;4945350;28;20479;-68
2023/03/26 04:49:12;;;;;;;24.65;15.60;;;;;;;;;;4946157;28;20478;-67
2023/03/26 04:51:40;;;;;;;22.33;15.27;;;;;;;;;;4949615;28;20159;-68
2023/03/26 04:54:11;;;;;;;23.42;16.02;;;;;;;;;;4947828;28;20030;-68
2023/03/26 04:56:52;;;;;;;23.10;15.32;;;;;;;;;;4943693;28;20569;-69
2023/03/26 04:59:33;;;;;;;26.05;16.30;;;;;;;;;;4944119;28;20429;-67
2023/03/26 05:02:04;;;;;;;23.63;15.68;;;;;;;;;;4932200;28;20043;-68
2023/03/26 05:04:39;;;;;;;27.60;16.27;;;;;;;;;;4934835;28;20113;-68
2023/03/26 05:07:08;;;;;;;;;;;;;;;;;;4949610;28;20364;-68
2023/03/26 05:09:45;;;;;;;26.27;13.57;;;;;;;;;;4946375;28;20052;-68
2023/03/26 05:12:12;;;;;;;24.75;14.18;;;;;;;;;;4948578;28;20070;-68
2023/03/26 05:14:39;;;;;;;23.35;15.48;;;;;;;;;;4924495;28;20161;-69
2023/03/26 05:17:09;;;;;;;23.50;14.77;;;;;;;;;;4946626;28;20488;-69
2023/03/26 05:19:41;;;;;;;24.08;14.82;;;;;;;;;;4928671;28;20461;-68
2023/03/26 05:22:10;;;;;;;25.35;15.63;;;;;;;;;;4950590;28;20668;-68
2023/03/26 05:24:39;;;;;;;28.35;15.43;;;;;;;;;;4924086;28;20034;-69
2023/03/26 05:27:06;;;;;;;25.60;15.75;;;;;;;;;;4945058;28;20049;-68
2023/03/26 05:29:33;;;;;;;27.77;15.35;;;;;;;;;;4932785;28;20034;-69
2023/03/26 05:32:01;;;;;;;24.98;16.67;;;;;;;;;;4943650;28;20080;-68
2023/03/26 05:34:28;;;;;;;25.02;17.13;;;;;;;;;;4905937;29;20514;-68
2023/03/26 05:36:57;;;;;;;27.08;15.82;;;;;;;;;;4904141;29;20788;-69
2023/03/26 05:39:28;;;;;;;27.05;15.82;;;;;;;;;;4902922;29;20154;-69
2023/03/26 05:41:57;;;;;;;24.20;15.55;;;;;;;;;;4898686;29;20417;-69
2023/03/26 05:44:26;;;;;;;26.60;16.05;;;;;;;;;;4901217;29;20222;-69
2023/03/26 05:46:55;;;;;;;24.08;16.13;;;;;;;;;;4898899;29;20055;-68
2023/03/26 05:49:22;;;;;;;30.25;16.00;;;;;;;;;;4926971;28;20055;-69
2023/03/26 05:51:51;;;;;;;24.40;14.68;;;;;;;;;;4944025;28;20322;-69
2023/03/26 05:54:19;;;;;;;25.83;15.70;;;;;;;;;;4941273;28;20030;-68
2023/03/26 05:56:45;;;;;;;23.90;14.80;;;;;;;;;;4946897;28;20639;-68
2023/03/26 05:59:35;;;;;;;24.65;16.20;;;;;;;;;;4948287;28;20035;-70
2023/03/26 06:02:05;;;;;;;28.73;17.73;;;;;;;;;;4937947;28;20764;-68
2023/03/26 06:04:32;;;;;;;29.15;16.63;;;;;;;;;;4930968;28;20085;-67
2023/03/26 06:07:02;;;;;;;26.85;16.83;;;;;;;;;;4945822;28;20078;-69
2023/03/26 06:09:30;;;;;;;28.42;15.57;;;;;;;;;;4943808;28;20043;-68
2023/03/26 06:11:57;;;;;;;24.30;15.52;;;;;;;;;;4929308;28;20042;-68
2023/03/26 06:14:24;;;;;;;31.13;18.13;;;;;;;;;;4944906;28;20219;-68
2023/03/26 06:16:52;;;;;;;26.80;16.63;;;;;;;;;;4942060;28;20046;-67
2023/03/26 06:19:20;;;;;;;25.63;17.27;;;;;;;;;;4927266;28;20355;-68
2023/03/26 06:21:49;;;;;;;27.90;18.67;;;;;;;;;;4919399;28;20505;-67
2023/03/26 06:24:18;;;;;;;27.05;16.13;;;;;;;;;;4922306;28;20592;-68
2023/03/26 06:26:47;;;;;;;24.25;14.82;;;;;;;;;;4944888;28;20054;-68
2023/03/26 06:29:15;;;;;;;26.13;15.82;;;;;;;;;;4925876;28;20031;-69
2023/03/26 06:31:41;;;;;;;24.35;16.20;;;;;;;;;;4943206;28;20039;-67
2023/03/26 06:34:10;;;;;;;24.05;13.50;;;;;;;;;;4946611;28;20022;-68
2023/03/26 06:36:40;;;;;;;23.98;15.13;;;;;;;;;;4943879;28;20446;-68
2023/03/26 06:39:06;;;;;;;19.30;11.70;;;;;;;;;;4945499;28;20022;-68
2023/03/26 06:41:33;;;;;;;;;;;;;;;;;;4944408;28;20030;-67
2023/03/26 06:44:01;;;;;;;21.88;14.52;;;;;;;;;;4947356;28;19918;-68
2023/03/26 06:46:28;;;;;;;26.08;14.65;;;;;;;;;;4945177;28;20034;-68
2023/03/26 06:48:58;;;;;;;21.92;13.27;;;;;;;;;;4943287;28;20055;-68
2023/03/26 06:51:26;;;;;;;28.15;16.63;;;;;;;;;;4942941;28;20038;-68
2023/03/26 06:53:53;;;;;;;22.75;13.98;;;;;;;;;;4944253;28;20039;-68
2023/03/26 06:56:19;;;;;;;22.65;15.13;;;;;;;;;;4945451;28;20035;-68
2023/03/26 06:58:45;;;;;;;19.30;12.38;;;;;;;;;;4943547;28;20069;-68
2023/03/26 07:01:11;;;;;;;;;;;;;;;;;;4941867;28;20031;-68
2023/03/26 07:03:39;;;;;;;22.88;13.98;;;;;;;;;;4939072;28;20356;-69
2023/03/26 07:06:07;;;;;;;21.45;13.48;;;;;;;;;;4950205;28;20141;-69
2023/03/26 07:08:36;;;;;;;20.67;13.57;;;;;;;;;;4922356;28;20555;-67
2023/03/26 07:11:02;;;;;;;20.40;12.95;;;;;;;;;;4937583;28;20046;-67
2023/03/26 07:13:29;;;;;;;19.42;12.85;;;;;;;;;;4925221;28;20039;-68
2023/03/26 07:15:57;;;;;;;18.65;11.30;;;;;;;;;;4943020;28;20046;-68
2023/03/26 07:18:25;;;;;;;19.92;13.27;;;;;;;;;;4940679;28;20834;-68
2023/03/26 07:20:54;;;;;;;18.80;11.93;;;;;;;;;;4936663;28;20038;-68
2023/03/26 07:23:23;;;;;;;19.70;13.60;;;;;;;;;;4940522;28;20186;-68
2023/03/26 07:25:51;;;;;;;19.85;12.43;;;;;;;;;;4921269;28;20134;-68
2023/03/26 07:28:35;;;;;;;18.77;11.80;;;;;;;;;;4940194;28;20405;-69
2023/03/26 07:31:09;;;;;;;22.98;13.52;;;;;;;;;;4921463;28;20038;-69
2023/03/26 07:33:46;;;;;;;20.90;12.48;;;;;;;;;;4939626;28;20035;-69
2023/03/26 07:36:30;;;;;;;22.10;10.80;;;;;;;;;;4932491;28;20460;-68
2023/03/26 07:39:34;;;;;;;18.48;10.38;;;;;;;;;;4934588;28;22024;-68
2023/03/26 07:42:05;;;;;;;15.75;9.60;;;;;;;;;;4833164;29;20613;-68
2023/03/26 07:44:51;;;;;;;17.08;9.88;;;;;;;;;;4847348;29;20049;-70
2023/03/26 07:47:24;;;;;;;18.45;9.45;;;;;;;;;;4847938;29;20643;-69
2023/03/26 07:49:54;;;;;;;19.77;9.50;;;;;;;;;;4829615;29;20065;-69
2023/03/26 07:52:21;;;;;;;19.40;9.77;;;;;;;;;;4840163;29;20848;-70
2023/03/26 07:54:49;;;;;;;17.55;9.23;;;;;;;;;;4838562;29;20053;-69
2023/03/26 07:57:43;;;;;;;15.25;8.88;;;;;;;;;;4841161;29;20045;-68
2023/03/26 08:00:24;;;;;;;19.10;8.80;;;;;;;;;;4754148;29;20683;-70
2023/03/26 08:03:15;;;;;;;17.25;8.93;;;;;;;;;;4738587;29;20071;-68
2023/03/26 08:05:48;;;;;;;16.73;8.15;;;;;;;;;;4748456;29;20042;-69
2023/03/26 08:08:23;;;;;;;17.33;7.75;;;;;;;;;;4765636;29;20606;-69
2023/03/26 08:11:09;;;;;;;15.55;7.50;;;;;;;;;;4750854;29;20064;-70
2023/03/26 08:13:41;;;;;;;14.63;7.35;;;;;;;;;;4756159;29;20394;-69
2023/03/26 08:16:11;;;;;;;17.08;6.68;;;;;;;;;;4791474;29;20474;-70
2023/03/26 08:18:56;;;;;;;15.70;6.43;;;;;;;;;;4828432;29;20086;-69
2023/03/26 08:21:30;;;;;;;16.50;6.95;;;;;;;;;;4826123;29;20057;-69
2023/03/26 08:24:13;;;;;;;14.02;6.78;;;;;;;;;;4826465;29;20626;-69
2023/03/26 08:26:57;;;;;;;15.10;6.10;;;;;;;;;;4828823;29;20455;-70
2023/03/26 08:29:26;;;;;;;16.25;6.85;;;;;;;;;;4814662;29;20546;-70
2023/03/26 08:31:54;;;;;;;14.38;6.50;;;;;;;;;;4801739;29;20156;-70
2023/03/26 08:34:24;;;;;;;13.93;6.85;;;;;;;;;;4813458;29;20485;-70
2023/03/26 08:36:51;;;;;;;18.73;7.05;;;;;;;;;;4867363;28;20134;-69
2023/03/26 08:39:21;;;;;;;15.55;6.30;;;;;;;;;;4940405;28;20034;-69
2023/03/26 08:42:07;;;;;;;17.00;6.50;;;;;;;;;;4922794;28;20096;-69
2023/03/26 08:44:51;;;;;;;15.23;6.97;;;;;;;;;;4944638;28;20216;-69
2023/03/26 08:47:23;;;;;;;13.68;6.03;;;;;;;;;;4945098;28;20057;-69
2023/03/26 08:50:04;;;;;;;14.20;6.70;;;;;;;;;;4940677;28;20046;-69
2023/03/26 08:52:50;;;;;;;15.73;6.47;;;;;;;;;;4943400;28;20038;-70
2023/03/26 08:55:35;;;;;;;16.40;6.40;;;;;;;;;;4942992;28;20035;-69
2023/03/26 08:58:21;;;;;;;12.20;5.70;;;;;;;;;;4942274;28;20042;-69
2023/03/26 09:01:07;;;;;;;19.48;5.90;;;;;;;;;;4935613;28;20038;-70
2023/03/26 09:03:59;;;;;;;14.20;5.57;;;;;;;;;;4937392;28;20170;-69
2023/03/26 09:06:45;;;;;;;14.65;5.72;;;;;;;;;;4927882;28;20042;-69
2023/03/26 09:09:32;;;;;;;11.75;5.63;;;;;;;;;;4939063;28;20150;-69
2023/03/26 09:12:17;;;;;;;14.48;6.22;;;;;;;;;;4922612;28;20947;-69
2023/03/26 09:14:52;;;;;;;16.20;6.05;;;;;;;;;;4937876;28;20648;-69
2023/03/26 09:17:21;;;;;;;19.00;6.65;;;;;;;;;;4941742;28;20272;-69
2023/03/26 09:20:05;;;;;;;13.75;5.95;;;;;;;;;;4939580;28;20031;-69
2023/03/26 09:22:50;;;;;;;15.38;5.03;;;;;;;;;;4940919;28;20054;-69
2023/03/26 09:25:26;;;;;;;13.30;5.38;;;;;;;;;;4924463;28;20039;-69
2023/03/26 09:28:10;;;;;;;15.13;5.90;;;;;;;;;;4937160;28;20549;-69
2023/03/26 09:30:56;;;;;;;14.00;5.63;;;;;;;;;;4930119;28;20553;-69
2023/03/26 09:33:42;;;;;;;12.95;4.65;;;;;;;;;;4925551;28;20047;-69
2023/03/26 09:36:11;;;;;;;11.77;4.93;;;;;;;;;;4941427;28;20207;-69
2023/03/26 09:38:45;;;;;;;12.30;4.80;;;;;;;;;;4935591;28;20114;-69
2023/03/26 09:41:41;;;;;;;13.32;4.97;;;;;;;;;;4938695;28;20066;-69
2023/03/26 09:44:17;;;;;;;12.27;4.97;;;;;;;;;;4867379;29;20495;-70
2023/03/26 09:47:04;;;;;;;13.23;4.65;;;;;;;;;;4862544;29;20040;-70
2023/03/26 09:49:39;;;;;;;13.32;5.32;;;;;;;;;;4851805;29;20535;-68
2023/03/26 09:52:25;;;;;;;12.40;4.95;;;;;;;;;;4869347;29;20040;-70
2023/03/26 09:54:53;;;;;;;;;;;;;;;;;;4867227;29;20454;-68
2023/03/26 09:57:39;;;;;;;14.15;4.70;;;;;;;;;;4866310;29;19961;-70
2023/03/26 10:00:17;;;;;;;12.10;4.17;;;;;;;;;;4863273;29;20547;-68
2023/03/26 10:02:50;;;;;;;11.73;4.38;;;;;;;;;;4848297;29;20044;-70
2023/03/26 10:05:28;;;;;;;12.65;4.18;;;;;;;;;;4854809;29;20115;-70
2023/03/26 10:08:29;;;;;;;12.20;4.32;;;;;;;;;;4860908;29;20103;-70
2023/03/26 10:10:58;;;;;;;14.85;4.93;;;;;;;;;;4808051;29;20153;-70
2023/03/26 10:13:39;;;;;;;12.15;4.20;;;;;;;;;;4808053;29;20096;-69
2023/03/26 10:16:17;;;;;;;13.80;4.70;;;;;;;;;;4811816;29;20485;-70
2023/03/26 10:18:52;;;;;;;10.75;4.25;;;;;;;;;;4809020;29;20045;-69
2023/03/26 10:21:34;;;;;;;14.20;4.30;;;;;;;;;;4858311;29;20052;-69
2023/03/26 10:24:10;;;;;;;12.25;4.60;;;;;;;;;;4893916;29;20686;-69
2023/03/26 10:26:40;;;;;;;10.18;4.20;;;;;;;;;;4879357;29;20122;-70
2023/03/26 10:29:26;;;;;;;10.52;4.20;;;;;;;;;;4881260;29;20044;-69
2023/03/26 10:31:58;;;;;;;14.18;4.78;;;;;;;;;;4858291;29;20740;-70
2023/03/26 10:34:40;;;;;;;13.40;4.10;;;;;;;;;;4882623;29;20322;-69
2023/03/26 10:37:10;;;;;;;10.27;3.80;;;;;;;;;;4875656;29;20463;-70
2023/03/26 10:39:54;;;;;;;10.73;4.07;;;;;;;;;;4880387;29;20074;-69
2023/03/26 10:42:55;;;;;;;10.77;4.50;;;;;;;;;;4855459;29;20037;-69
2023/03/26 10:45:30;;;;;;;11.57;3.80;;;;;;;;;;4865269;29;20070;-68
2023/03/26 10:48:17;;;;;;;11.05;3.90;;;;;;;;;;4912466;28;20330;-69
2023/03/26 10:50:44;;;;;;;;;;;;;;;;;;4909424;28;20055;-70
2023/03/26 10:53:19;;;;;;;10.02;4.03;;;;;;;;;;4887238;28;19922;-69
2023/03/26 10:55:51;;;;;;;11.30;4.18;;;;;;;;;;4899866;28;20109;-69
2023/03/26 10:58:24;;;;;;;12.77;3.75;;;;;;;;;;4890223;28;20039;-70
2023/03/26 11:00:57;;;;;;;13.02;3.95;;;;;;;;;;4910853;28;20047;-70
2023/03/26 11:03:27;;;;;;;8.50;3.13;;;;;;;;;;4911806;28;20134;-69
2023/03/26 11:06:10;;;;;;;12.00;3.25;;;;;;;;;;4891693;28;20414;-70
2023/03/26 11:08:42;;;;;;;9.13;3.13;;;;;;;;;;4897565;28;21312;-70
2023/03/26 11:11:16;;;;;;;10.10;3.60;;;;;;;;;;4916580;28;20437;-70
2023/03/26 11:13:42;;;;;;;11.15;3.67;;;;;;;;;;4889063;28;20078;-69
2023/03/26 11:16:29;;;;;;;9.23;3.13;;;;;;;;;;4896892;28;20212;-70
2023/03/26 11:18:56;;;;;;;11.05;3.20;;;;;;;;;;4926753;28;20041;-68
2023/03/26 11:21:28;;;;;;;8.25;3.10;;;;;;;;;;4932880;28;20488;-69
2023/03/26 11:24:13;;;;;;;9.52;3.20;;;;;;;;;;4931943;28;20042;-68
2023/03/26 11:26:56;;;;;;;9.23;2.97;;;;;;;;;;4901101;28;20567;-69
2023/03/26 11:29:41;;;;;;;9.50;3.03;;;;;;;;;;4940794;28;20097;-69
2023/03/26 11:32:20;;;;;;;8.35;2.65;;;;;;;;;;4930435;28;20046;-68
2023/03/26 11:34:49;;;;;;;10.43;2.88;;;;;;;;;;4911893;28;20038;-69
2023/03/26 11:37:21;;;;;;;12.23;3.25;;;;;;;;;;4937692;28;20082;-69
2023/03/26 11:39:50;;;;;;;10.75;2.65;;;;;;;;;;4931642;28;20036;-71
2023/03/26 11:42:20;;;;;;;8.27;2.63;;;;;;;;;;4924099;28;20756;-70
2023/03/26 11:45:00;;;;;;;8.13;2.60;;;;;;;;;;4904882;28;20576;-69
2023/03/26 11:47:47;;;;;;;7.72;2.35;;;;;;;;;;4923285;28;20542;-70
2023/03/26 11:50:20;;;;;;;12.23;2.67;;;;;;;;;;4940448;28;20050;-70
2023/03/26 11:52:47;;;;;;;8.75;2.55;;;;;;;;;;4914781;28;20105;-69
2023/03/26 11:55:15;;;;;;;9.35;2.60;;;;;;;;;;4935301;28;20050;-72
2023/03/26 11:57:52;;;;;;;8.55;2.55;;;;;;;;;;4935366;28;20139;-67
2023/03/26 12:00:26;;;;;;;9.70;2.33;;;;;;;;;;4925107;28;20038;-66
2023/03/26 12:02:56;;;;;;;9.23;2.13;;;;;;;;;;4883447;28;20038;-68
2023/03/26 12:05:30;;;;;;;7.65;2.10;;;;;;;;;;4906977;28;20039;-68
2023/03/26 12:07:59;;;;;;;10.43;2.10;;;;;;;;;;4931547;28;20145;-67
2023/03/26 12:10:41;;;;;;;9.95;2.00;;;;;;;;;;4940747;28;20291;-67
2023/03/26 12:13:26;;;;;;;12.77;2.47;;;;;;;;;;4908059;28;20250;-67
2023/03/26 12:15:57;;;;;;;8.93;2.13;;;;;;;;;;4932702;28;20841;-68
2023/03/26 12:18:28;;;;;;;9.77;2.05;;;;;;;;;;4921437;28;20162;-68
2023/03/26 12:21:09;;;;;;;9.48;2.40;;;;;;;;;;4904463;28;20074;-67
2023/03/26 12:23:56;;;;;;;10.43;2.40;;;;;;;;;;4933457;28;20035;-67
2023/03/26 12:26:38;;;;;;;6.15;1.80;;;;;;;;;;4939279;28;20062;-67
2023/03/26 12:29:09;;;;;;;9.07;2.30;;;;;;;;;;4935240;28;20078;-66
2023/03/26 12:31:46;;;;;;;7.82;2.17;;;;;;;;;;4935999;28;20034;-67
2023/03/26 12:34:20;;;;;;;7.60;2.10;;;;;;;;;;4936334;28;20308;-68
2023/03/26 12:36:49;;;;;;;9.52;2.50;;;;;;;;;;4934343;28;20150;-68
2023/03/26 12:39:29;;;;;;;8.38;2.03;;;;;;;;;;4933439;28;20165;-68
2023/03/26 12:42:01;;;;;;;7.10;1.83;;;;;;;;;;4935144;28;20031;-67
2023/03/26 12:44:36;;;;;;;8.80;2.25;;;;;;;;;;4925971;28;20320;-67
2023/03/26 12:47:22;;;;;;;9.70;2.33;;;;;;;;;;4914266;28;20770;-66
2023/03/26 12:49:50;;;;;;;8.30;1.98;;;;;;;;;;4928570;28;20078;-68
2023/03/26 12:52:38;;;;;;;9.10;2.30;;;;;;;;;;4924700;28;20492;-66
2023/03/26 12:55:09;;;;;;;7.00;2.10;;;;;;;;;;4901828;28;20110;-68
2023/03/26 12:57:43;;;;;;;7.82;2.30;;;;;;;;;;4938478;28;20034;-67
2023/03/26 13:00:19;;;;;;;9.48;2.55;;;;;;;;;;4920675;28;20037;-68
2023/03/26 13:02:52;;;;;;;9.25;2.75;;;;;;;;;;4920791;28;20053;-67
2023/03/26 13:05:36;;;;;;;9.50;2.20;;;;;;;;;;4927504;28;20382;-67
2023/03/26 13:08:19;;;;;;;7.45;2.13;;;;;;;;;;4937859;28;20072;-67
2023/03/26 13:11:04;;;;;;;7.20;2.30;;;;;;;;;;4919319;28;20366;-67
2023/03/26 13:13:46;;;;;;;7.13;1.80;;;;;;;;;;4926771;28;20023;-67
2023/03/26 13:16:28;;;;;;;9.38;2.20;;;;;;;;;;4942663;28;20543;-67
2023/03/26 13:19:13;;;;;;;9.20;2.30;;;;;;;;;;4918401;28;20113;-68
2023/03/26 13:22:00;;;;;;;7.40;1.95;;;;;;;;;;4922042;28;20043;-68
2023/03/26 13:24:34;;;;;;;7.82;1.98;;;;;;;;;;4923466;28;20118;-69
2023/03/26 13:27:19;;;;;;;10.00;2.00;;;;;;;;;;4940551;28;20723;-67
2023/03/26 13:29:55;;;;;;;7.57;2.38;;;;;;;;;;4935779;28;20039;-67
2023/03/26 13:32:50;;;;;;;8.45;1.90;;;;;;;;;;4940817;28;20047;-68
2023/03/26 13:35:25;;;;;;;6.40;1.60;;;;;;;;;;4937364;28;20739;-68
2023/03/26 13:37:56;;;;;;;2.67;0.90;;;;;;;;;;4938528;28;20038;-69
2023/03/26 13:40:39;;;;;;;4.65;1.35;;;;;;;;;;4920361;28;20118;-67
2023/03/26 13:43:25;;;;;;;3.97;0.98;;;;;;;;;;4940639;28;20031;-67
2023/03/26 13:45:59;;;;;;;8.02;1.77;;;;;;;;;;4934412;28;20038;-67
2023/03/26 13:48:33;;;;;;;7.57;2.22;;;;;;;;;;4941816;28;20313;-68
2023/03/26 13:51:11;;;;;;;7.93;2.10;;;;;;;;;;4933668;28;20212;-68
2023/03/26 13:53:43;;;;;;;6.47;1.58;;;;;;;;;;4941149;28;20077;-67
2023/03/26 13:56:10;;;;;;;8.80;2.00;;;;;;;;;;4940867;28;20133;-67
2023/03/26 13:58:52;;;;;;;5.47;1.33;;;;;;;;;;4924654;28;20050;-67
2023/03/26 14:01:32;;;;;;;4.72;1.10;;;;;;;;;;4939181;28;20083;-67
2023/03/26 14:04:32;;;;;;;6.20;1.38;;;;;;;;;;4936501;28;20031;-68
2023/03/26 14:07:02;;;;;;;2.50;0.80;;;;;;;;;;4937992;28;20983;-68
2023/03/26 14:09:31;;;;;;;3.95;0.90;;;;;;;;;;4938117;28;20072;-67
2023/03/26 14:12:05;;;;;;;4.32;0.95;;;;;;;;;;4934904;28;20034;-66
2023/03/26 14:14:54;;;;;;;3.63;1.00;;;;;;;;;;4941510;28;20358;-68
2023/03/26 14:17:27;;;;;;;3.60;0.90;;;;;;;;;;4943455;28;20085;-66
2023/03/26 14:20:10;;;;;;;3.92;1.10;;;;;;;;;;4924219;28;20035;-67
2023/03/26 14:23:12;;;;;;;4.18;1.20;;;;;;;;;;4946325;28;20461;-67
2023/03/26 14:26:02;;;;;;;6.03;1.73;;;;;;;;;;4863063;29;20521;-68
2023/03/26 14:28:50;;;;;;;4.38;1.50;;;;;;;;;;4863793;29;20067;-66
2023/03/26 14:31:38;;;;;;;3.83;1.10;;;;;;;;;;4865765;29;20590;-67
2023/03/26 14:34:23;;;;;;;4.22;1.10;;;;;;;;;;4868326;29;20041;-67
2023/03/26 14:36:57;;;;;;;4.55;1.30;;;;;;;;;;4866346;29;20384;-68
2023/03/26 14:39:50;;;;;;;3.78;1.10;;;;;;;;;;4863287;29;20037;-69
2023/03/26 14:42:29;;;;;;;4.40;1.20;;;;;;;;;;4866113;29;20221;-67
2023/03/26 14:45:14;;;;;;;3.88;1.10;;;;;;;;;;4861726;29;20029;-68
2023/03/26 14:47:50;;;;;;;4.93;1.10;;;;;;;;;;4860716;29;20049;-68
2023/03/26 14:50:35;;;;;;;4.63;1.00;;;;;;;;;;4864133;29;20059;-69
2023/03/26 14:53:03;;;;;;;;;;;;;;;;;;4857773;29;20371;-69
2023/03/26 14:55:47;;;;;;;3.50;0.80;;;;;;;;;;4848240;29;20023;-67
2023/03/26 14:58:32;;;;;;;2.88;0.98;;;;;;;;;;4860287;29;20041;-68
2023/03/26 15:01:23;;;;;;;5.72;1.35;;;;;;;;;;4937718;28;20038;-68
2023/03/26 15:04:08;;;;;;;4.15;1.10;;;;;;;;;;4918539;28;20416;-67
2023/03/26 15:06:55;;;;;;;5.47;0.85;;;;;;;;;;4942386;28;20667;-67
2023/03/26 15:09:40;;;;;;;3.45;1.10;;;;;;;;;;4940577;28;20446;-67
2023/03/26 15:12:26;;;;;;;3.63;1.00;;;;;;;;;;4941686;28;20030;-67
2023/03/26 15:15:00;;;;;;;5.70;1.67;;;;;;;;;;4941487;28;20041;-68